OINN  Noshahr  Airport

Iran

Add Bookmark
ICAO OINN
IATA NSH
Type Airport
Status Operational
Latitude
36° 39' 47" N
36.663300
Longitude
51° 27' 52" E
51.464699
Local (DST + 5) UTC (GMT + 4)
Apr 2, 2015 08:53 Apr 2, 2015 04:23
Sunrise-Sunset Local UTC
Begin Civil Twilight 06:21 01:51
Sunrise 06:47 02:17
Sunset 07:28 14:58
End Civil Twilight 07:54 15:24
VFR
VFR
MVFR
MVFR
IFR
VFR
LIFR
VFR
Unknown
Unavailable

Current Weather

METAR Observed MVFR
OINN 020400Z 06008KT 9000 -DZ BKN015 FEW020CB OVC080 10/10 Q1013 Thu, Apr 2, 2015 @ 04:00 UTC
(23 Minutes ago)
Marginal Visual Flight Rules
Wind Visibility Clouds Conditions
060° at 8 knots (15 kph) 9000 meters
  • Broken at 1,500' AGL
  • Few at 2,000' AGL
  • Overcast at 8,000' AGL
  • Light Drizzle
Temperatures Readings Precipitation
Current Temp 10°C (50°F)
Dewpoint 10°C (50°F)
Humidity 100%
Altimeter 29.91"Hg
Sea Level Pressure 1013mb
None Recorded

Additional weather within a 92.6km radius of OINN

Map ICAO Location
OINR 75km W (292°)
VFR
VFR
MVFR
MVFR
IFR
VFR
LIFR
VFR
Unknown
Unavailable
-
-

CheckWX.com is intended as a tool to help pilots better visualize weather data. It is not intended as a substitute for an official weather briefing obtained from a Flight Service Station. CheckWX.com does not meet the FAA requirements for an official pre-flight weather briefing. Therefore, it's important that pilots still call and obtain an official FSS pre-flight weather briefing.

© 2007-2015 CheckWX.com
04:23:49 UTC